sensor_id;sensor_type;location;lat;lon;timestamp;P1;durP1;ratioP1;P2;durP2;ratioP2
7377;SDS011;3730;50.856;12.776;2022-12-18T00:01:24;18.17;;;11.17;;
7377;SDS011;3730;50.856;12.776;2022-12-18T00:03:51;17.20;;;9.53;;
7377;SDS011;3730;50.856;12.776;2022-12-18T00:06:18;15.17;;;9.07;;
7377;SDS011;3730;50.856;12.776;2022-12-18T00:08:44;13.57;;;8.43;;
7377;SDS011;3730;50.856;12.776;2022-12-18T00:11:11;10.53;;;7.30;;
7377;SDS011;3730;50.856;12.776;2022-12-18T00:13:37;13.73;;;8.73;;
7377;SDS011;3730;50.856;12.776;2022-12-18T00:16:04;18.87;;;10.03;;
7377;SDS011;3730;50.856;12.776;2022-12-18T00:18:31;18.40;;;10.63;;
7377;SDS011;3730;50.856;12.776;2022-12-18T00:21:00;17.20;;;10.13;;
7377;SDS011;3730;50.856;12.776;2022-12-18T00:23:27;18.33;;;10.70;;
7377;SDS011;3730;50.856;12.776;2022-12-18T00:25:53;17.93;;;10.93;;
7377;SDS011;3730;50.856;12.776;2022-12-18T00:28:19;18.67;;;10.80;;
7377;SDS011;3730;50.856;12.776;2022-12-18T00:30:46;26.77;;;12.87;;
7377;SDS011;3730;50.856;12.776;2022-12-18T00:33:12;23.90;;;11.77;;
7377;SDS011;3730;50.856;12.776;2022-12-18T00:35:38;22.10;;;11.93;;
7377;SDS011;3730;50.856;12.776;2022-12-18T00:38:04;20.03;;;11.03;;
7377;SDS011;3730;50.856;12.776;2022-12-18T00:40:31;22.90;;;11.03;;
7377;SDS011;3730;50.856;12.776;2022-12-18T00:42:57;23.37;;;11.27;;
7377;SDS011;3730;50.856;12.776;2022-12-18T00:45:27;23.70;;;11.47;;
7377;SDS011;3730;50.856;12.776;2022-12-18T00:47:53;22.93;;;11.60;;
7377;SDS011;3730;50.856;12.776;2022-12-18T00:50:20;18.33;;;9.97;;
7377;SDS011;3730;50.856;12.776;2022-12-18T00:52:46;16.80;;;9.77;;
7377;SDS011;3730;50.856;12.776;2022-12-18T00:55:12;23.20;;;11.27;;
7377;SDS011;3730;50.856;12.776;2022-12-18T00:57:38;21.53;;;10.83;;
7377;SDS011;3730;50.856;12.776;2022-12-18T01:00:05;19.13;;;10.87;;
7377;SDS011;3730;50.856;12.776;2022-12-18T01:02:31;19.27;;;10.93;;
7377;SDS011;3730;50.856;12.776;2022-12-18T01:04:57;17.47;;;10.40;;
7377;SDS011;3730;50.856;12.776;2022-12-18T01:07:23;23.03;;;11.07;;
7377;SDS011;3730;50.856;12.776;2022-12-18T01:09:49;18.23;;;10.70;;
7377;SDS011;3730;50.856;12.776;2022-12-18T01:12:15;15.40;;;8.97;;
7377;SDS011;3730;50.856;12.776;2022-12-18T01:14:41;15.15;;;8.85;;
7377;SDS011;3730;50.856;12.776;2022-12-18T01:17:07;14.20;;;8.93;;
7377;SDS011;3730;50.856;12.776;2022-12-18T01:19:33;16.53;;;9.80;;
7377;SDS011;3730;50.856;12.776;2022-12-18T01:21:59;33.97;;;17.90;;
7377;SDS011;3730;50.856;12.776;2022-12-18T01:24:25;22.50;;;12.43;;
7377;SDS011;3730;50.856;12.776;2022-12-18T01:26:51;21.60;;;11.37;;
7377;SDS011;3730;50.856;12.776;2022-12-18T01:29:17;19.00;;;10.03;;
7377;SDS011;3730;50.856;12.776;2022-12-18T01:31:43;14.60;;;8.20;;
7377;SDS011;3730;50.856;12.776;2022-12-18T01:34:09;14.93;;;8.52;;
7377;SDS011;3730;50.856;12.776;2022-12-18T01:36:37;14.40;;;7.93;;
7377;SDS011;3730;50.856;12.776;2022-12-18T01:39:11;11.33;;;7.37;;
7377;SDS011;3730;50.856;12.776;2022-12-18T01:41:37;13.45;;;7.68;;
7377;SDS011;3730;50.856;12.776;2022-12-18T01:47:07;9.95;;;6.63;;
7377;SDS011;3730;50.856;12.776;2022-12-18T01:49:33;11.73;;;6.67;;
7377;SDS011;3730;50.856;12.776;2022-12-18T01:51:59;8.70;;;6.07;;
7377;SDS011;3730;50.856;12.776;2022-12-18T01:54:25;10.63;;;5.67;;
7377;SDS011;3730;50.856;12.776;2022-12-18T01:56:52;10.83;;;6.07;;
7377;SDS011;3730;50.856;12.776;2022-12-18T01:59:18;11.70;;;5.30;;
7377;SDS011;3730;50.856;12.776;2022-12-18T02:01:44;9.07;;;4.80;;
7377;SDS011;3730;50.856;12.776;2022-12-18T02:04:44;11.30;;;5.93;;
7377;SDS011;3730;50.856;12.776;2022-12-18T02:09:52;9.25;;;5.47;;
7377;SDS011;3730;50.856;12.776;2022-12-18T02:12:22;11.05;;;5.38;;
7377;SDS011;3730;50.856;12.776;2022-12-18T02:17:18;7.60;;;5.87;;
7377;SDS011;3730;50.856;12.776;2022-12-18T02:22:36;8.73;;;6.35;;
7377;SDS011;3730;50.856;12.776;2022-12-18T02:25:13;10.57;;;5.93;;
7377;SDS011;3730;50.856;12.776;2022-12-18T02:27:44;9.27;;;4.95;;
7377;SDS011;3730;50.856;12.776;2022-12-18T02:30:12;7.75;;;4.68;;
7377;SDS011;3730;50.856;12.776;2022-12-18T02:32:39;6.18;;;4.38;;
7377;SDS011;3730;50.856;12.776;2022-12-18T02:35:06;6.57;;;3.73;;
7377;SDS011;3730;50.856;12.776;2022-12-18T02:37:33;6.38;;;4.85;;
7377;SDS011;3730;50.856;12.776;2022-12-18T02:40:00;6.63;;;4.60;;
7377;SDS011;3730;50.856;12.776;2022-12-18T02:42:28;7.50;;;5.18;;
7377;SDS011;3730;50.856;12.776;2022-12-18T02:44:54;7.65;;;4.95;;
7377;SDS011;3730;50.856;12.776;2022-12-18T02:47:21;9.90;;;5.30;;
7377;SDS011;3730;50.856;12.776;2022-12-18T02:55:08;8.23;;;5.47;;
7377;SDS011;3730;50.856;12.776;2022-12-18T03:00:08;5.13;;;3.80;;
7377;SDS011;3730;50.856;12.776;2022-12-18T03:02:37;5.47;;;3.90;;
7377;SDS011;3730;50.856;12.776;2022-12-18T03:05:07;9.38;;;4.43;;
7377;SDS011;3730;50.856;12.776;2022-12-18T03:07:40;6.03;;;4.23;;
7377;SDS011;3730;50.856;12.776;2022-12-18T03:10:07;7.77;;;4.47;;
7377;SDS011;3730;50.856;12.776;2022-12-18T03:12:35;9.07;;;4.75;;
7377;SDS011;3730;50.856;12.776;2022-12-18T03:17:32;4.40;;;2.85;;
7377;SDS011;3730;50.856;12.776;2022-12-18T03:19:59;5.47;;;3.07;;
7377;SDS011;3730;50.856;12.776;2022-12-18T03:22:28;3.27;;;2.70;;
7377;SDS011;3730;50.856;12.776;2022-12-18T03:24:55;3.70;;;2.50;;
7377;SDS011;3730;50.856;12.776;2022-12-18T03:27:22;3.60;;;2.50;;
7377;SDS011;3730;50.856;12.776;2022-12-18T03:29:51;5.15;;;2.80;;
7377;SDS011;3730;50.856;12.776;2022-12-18T03:32:26;4.05;;;2.97;;
7377;SDS011;3730;50.856;12.776;2022-12-18T03:34:55;3.75;;;3.30;;
7377;SDS011;3730;50.856;12.776;2022-12-18T03:37:23;6.40;;;4.15;;
7377;SDS011;3730;50.856;12.776;2022-12-18T03:39:49;9.15;;;5.60;;
7377;SDS011;3730;50.856;12.776;2022-12-18T03:42:17;6.65;;;4.85;;
7377;SDS011;3730;50.856;12.776;2022-12-18T03:44:56;9.05;;;5.22;;
7377;SDS011;3730;50.856;12.776;2022-12-18T03:47:27;8.40;;;5.10;;
7377;SDS011;3730;50.856;12.776;2022-12-18T03:50:03;7.38;;;4.82;;
7377;SDS011;3730;50.856;12.776;2022-12-18T03:52:38;7.03;;;4.13;;
7377;SDS011;3730;50.856;12.776;2022-12-18T03:55:05;7.05;;;3.40;;
7377;SDS011;3730;50.856;12.776;2022-12-18T03:57:32;5.47;;;3.55;;
7377;SDS011;3730;50.856;12.776;2022-12-18T04:00:09;4.80;;;3.50;;
7377;SDS011;3730;50.856;12.776;2022-12-18T04:02:36;6.32;;;3.67;;
7377;SDS011;3730;50.856;12.776;2022-12-18T04:05:04;5.72;;;3.80;;
7377;SDS011;3730;50.856;12.776;2022-12-18T04:07:32;7.30;;;3.13;;
7377;SDS011;3730;50.856;12.776;2022-12-18T04:09:59;3.13;;;2.30;;
7377;SDS011;3730;50.856;12.776;2022-12-18T04:12:26;2.60;;;2.13;;
7377;SDS011;3730;50.856;12.776;2022-12-18T04:14:54;5.38;;;2.95;;
7377;SDS011;3730;50.856;12.776;2022-12-18T04:17:20;5.90;;;2.75;;
7377;SDS011;3730;50.856;12.776;2022-12-18T04:19:46;6.43;;;3.30;;
7377;SDS011;3730;50.856;12.776;2022-12-18T04:22:12;5.57;;;3.00;;
7377;SDS011;3730;50.856;12.776;2022-12-18T04:24:38;4.77;;;3.27;;
7377;SDS011;3730;50.856;12.776;2022-12-18T04:27:04;6.80;;;3.97;;
7377;SDS011;3730;50.856;12.776;2022-12-18T04:29:30;6.75;;;3.75;;
7377;SDS011;3730;50.856;12.776;2022-12-18T04:31:56;5.40;;;3.80;;
7377;SDS011;3730;50.856;12.776;2022-12-18T04:34:22;5.07;;;3.60;;
7377;SDS011;3730;50.856;12.776;2022-12-18T04:36:48;4.57;;;3.23;;
7377;SDS011;3730;50.856;12.776;2022-12-18T04:39:17;5.07;;;3.07;;
7377;SDS011;3730;50.856;12.776;2022-12-18T04:41:43;6.10;;;3.40;;
7377;SDS011;3730;50.856;12.776;2022-12-18T04:44:09;5.07;;;3.40;;
7377;SDS011;3730;50.856;12.776;2022-12-18T04:46:35;3.80;;;2.90;;
7377;SDS011;3730;50.856;12.776;2022-12-18T04:49:01;4.87;;;2.87;;
7377;SDS011;3730;50.856;12.776;2022-12-18T04:51:27;4.23;;;2.87;;
7377;SDS011;3730;50.856;12.776;2022-12-18T04:53:53;3.40;;;2.53;;
7377;SDS011;3730;50.856;12.776;2022-12-18T04:56:19;4.57;;;2.97;;
7377;SDS011;3730;50.856;12.776;2022-12-18T04:58:45;4.28;;;3.20;;
7377;SDS011;3730;50.856;12.776;2022-12-18T05:01:12;4.28;;;3.45;;
7377;SDS011;3730;50.856;12.776;2022-12-18T05:03:39;6.53;;;4.70;;
7377;SDS011;3730;50.856;12.776;2022-12-18T05:06:05;9.57;;;6.35;;
7377;SDS011;3730;50.856;12.776;2022-12-18T05:08:31;11.32;;;6.00;;
7377;SDS011;3730;50.856;12.776;2022-12-18T05:10:58;7.13;;;4.75;;
7377;SDS011;3730;50.856;12.776;2022-12-18T05:13:25;7.90;;;4.78;;
7377;SDS011;3730;50.856;12.776;2022-12-18T05:15:51;6.53;;;4.47;;
7377;SDS011;3730;50.856;12.776;2022-12-18T05:18:18;7.28;;;4.47;;
7377;SDS011;3730;50.856;12.776;2022-12-18T05:20:44;7.30;;;4.30;;
7377;SDS011;3730;50.856;12.776;2022-12-18T05:23:09;4.83;;;3.23;;
7377;SDS011;3730;50.856;12.776;2022-12-18T05:25:35;4.33;;;3.30;;
7377;SDS011;3730;50.856;12.776;2022-12-18T05:28:01;4.80;;;3.23;;
7377;SDS011;3730;50.856;12.776;2022-12-18T05:30:27;7.43;;;3.10;;
7377;SDS011;3730;50.856;12.776;2022-12-18T05:32:54;4.65;;;3.28;;
7377;SDS011;3730;50.856;12.776;2022-12-18T05:35:20;5.38;;;3.50;;
7377;SDS011;3730;50.856;12.776;2022-12-18T05:37:46;7.37;;;4.50;;
7377;SDS011;3730;50.856;12.776;2022-12-18T05:40:12;7.50;;;4.70;;
7377;SDS011;3730;50.856;12.776;2022-12-18T05:42:38;7.05;;;4.80;;
7377;SDS011;3730;50.856;12.776;2022-12-18T05:45:04;7.80;;;4.82;;
7377;SDS011;3730;50.856;12.776;2022-12-18T05:47:30;9.20;;;4.63;;
7377;SDS011;3730;50.856;12.776;2022-12-18T05:49:57;6.05;;;4.18;;
7377;SDS011;3730;50.856;12.776;2022-12-18T05:52:23;6.18;;;3.70;;
7377;SDS011;3730;50.856;12.776;2022-12-18T05:54:49;7.40;;;4.40;;
7377;SDS011;3730;50.856;12.776;2022-12-18T05:57:15;4.97;;;3.47;;
7377;SDS011;3730;50.856;12.776;2022-12-18T05:59:41;4.03;;;2.97;;
7377;SDS011;3730;50.856;12.776;2022-12-18T06:02:07;5.30;;;3.53;;
7377;SDS011;3730;50.856;12.776;2022-12-18T06:04:33;4.93;;;3.30;;
7377;SDS011;3730;50.856;12.776;2022-12-18T06:06:59;4.75;;;3.30;;
7377;SDS011;3730;50.856;12.776;2022-12-18T06:09:25;5.83;;;3.73;;
7377;SDS011;3730;50.856;12.776;2022-12-18T06:11:51;6.05;;;3.40;;
7377;SDS011;3730;50.856;12.776;2022-12-18T06:14:18;7.90;;;3.17;;
7377;SDS011;3730;50.856;12.776;2022-12-18T06:16:44;11.02;;;6.57;;
7377;SDS011;3730;50.856;12.776;2022-12-18T06:19:12;9.20;;;6.10;;
7377;SDS011;3730;50.856;12.776;2022-12-18T06:21:39;7.70;;;5.45;;
7377;SDS011;3730;50.856;12.776;2022-12-18T06:24:05;9.83;;;5.93;;
7377;SDS011;3730;50.856;12.776;2022-12-18T06:26:31;6.28;;;4.90;;
7377;SDS011;3730;50.856;12.776;2022-12-18T06:28:57;6.90;;;4.30;;
7377;SDS011;3730;50.856;12.776;2022-12-18T06:31:23;5.68;;;4.43;;
7377;SDS011;3730;50.856;12.776;2022-12-18T06:33:49;5.80;;;3.50;;
7377;SDS011;3730;50.856;12.776;2022-12-18T06:36:15;3.63;;;2.57;;
7377;SDS011;3730;50.856;12.776;2022-12-18T06:38:42;3.33;;;2.40;;
7377;SDS011;3730;50.856;12.776;2022-12-18T06:41:09;4.53;;;3.22;;
7377;SDS011;3730;50.856;12.776;2022-12-18T06:43:35;7.80;;;4.40;;
7377;SDS011;3730;50.856;12.776;2022-12-18T06:46:01;6.10;;;4.20;;
7377;SDS011;3730;50.856;12.776;2022-12-18T06:48:27;6.82;;;4.05;;
7377;SDS011;3730;50.856;12.776;2022-12-18T06:50:53;10.48;;;5.50;;
7377;SDS011;3730;50.856;12.776;2022-12-18T06:53:19;7.53;;;4.07;;
7377;SDS011;3730;50.856;12.776;2022-12-18T06:55:46;7.45;;;5.07;;
7377;SDS011;3730;50.856;12.776;2022-12-18T06:58:12;29.75;;;16.80;;
7377;SDS011;3730;50.856;12.776;2022-12-18T07:00:38;34.13;;;18.73;;
7377;SDS011;3730;50.856;12.776;2022-12-18T07:03:04;27.47;;;18.13;;
7377;SDS011;3730;50.856;12.776;2022-12-18T07:05:30;28.07;;;18.43;;
7377;SDS011;3730;50.856;12.776;2022-12-18T07:07:56;43.50;;;25.10;;
7377;SDS011;3730;50.856;12.776;2022-12-18T07:10:22;52.67;;;29.53;;
7377;SDS011;3730;50.856;12.776;2022-12-18T07:12:48;76.57;;;39.83;;
7377;SDS011;3730;50.856;12.776;2022-12-18T07:15:14;56.00;;;33.72;;
7377;SDS011;3730;50.856;12.776;2022-12-18T07:17:40;39.45;;;25.08;;
7377;SDS011;3730;50.856;12.776;2022-12-18T07:20:06;34.53;;;21.50;;
7377;SDS011;3730;50.856;12.776;2022-12-18T07:22:32;24.95;;;15.55;;
7377;SDS011;3730;50.856;12.776;2022-12-18T07:24:58;36.65;;;21.00;;
7377;SDS011;3730;50.856;12.776;2022-12-18T07:27:24;55.93;;;28.20;;
7377;SDS011;3730;50.856;12.776;2022-12-18T07:29:50;56.63;;;28.70;;
7377;SDS011;3730;50.856;12.776;2022-12-18T07:32:16;24.13;;;12.83;;
7377;SDS011;3730;50.856;12.776;2022-12-18T07:34:42;16.25;;;9.82;;
7377;SDS011;3730;50.856;12.776;2022-12-18T07:37:08;11.70;;;8.45;;
7377;SDS011;3730;50.856;12.776;2022-12-18T07:39:34;19.27;;;11.70;;
7377;SDS011;3730;50.856;12.776;2022-12-18T07:42:00;17.80;;;11.43;;
7377;SDS011;3730;50.856;12.776;2022-12-18T07:44:45;16.20;;;10.68;;
7377;SDS011;3730;50.856;12.776;2022-12-18T07:47:11;15.20;;;10.30;;
7377;SDS011;3730;50.856;12.776;2022-12-18T07:49:37;17.73;;;11.60;;
7377;SDS011;3730;50.856;12.776;2022-12-18T07:52:03;18.80;;;12.33;;
7377;SDS011;3730;50.856;12.776;2022-12-18T07:54:29;18.25;;;11.95;;
7377;SDS011;3730;50.856;12.776;2022-12-18T07:56:55;17.85;;;10.35;;
7377;SDS011;3730;50.856;12.776;2022-12-18T07:59:21;17.42;;;10.15;;
7377;SDS011;3730;50.856;12.776;2022-12-18T08:01:47;15.77;;;10.40;;
7377;SDS011;3730;50.856;12.776;2022-12-18T08:04:13;16.55;;;10.20;;
7377;SDS011;3730;50.856;12.776;2022-12-18T08:06:39;20.23;;;11.95;;
7377;SDS011;3730;50.856;12.776;2022-12-18T08:09:05;19.53;;;11.77;;
7377;SDS011;3730;50.856;12.776;2022-12-18T08:11:32;14.80;;;9.43;;
7377;SDS011;3730;50.856;12.776;2022-12-18T08:13:58;13.30;;;7.10;;
7377;SDS011;3730;50.856;12.776;2022-12-18T08:16:25;11.53;;;6.27;;
7377;SDS011;3730;50.856;12.776;2022-12-18T08:18:51;11.27;;;5.68;;
7377;SDS011;3730;50.856;12.776;2022-12-18T08:21:19;11.18;;;5.95;;
7377;SDS011;3730;50.856;12.776;2022-12-18T08:23:47;28.38;;;16.73;;
7377;SDS011;3730;50.856;12.776;2022-12-18T08:26:14;33.22;;;19.17;;
7377;SDS011;3730;50.856;12.776;2022-12-18T08:28:40;24.63;;;14.57;;
7377;SDS011;3730;50.856;12.776;2022-12-18T08:31:06;16.20;;;10.65;;
7377;SDS011;3730;50.856;12.776;2022-12-18T08:33:32;19.95;;;10.77;;
7377;SDS011;3730;50.856;12.776;2022-12-18T08:35:59;16.08;;;9.27;;
7377;SDS011;3730;50.856;12.776;2022-12-18T08:38:25;20.98;;;11.55;;
7377;SDS011;3730;50.856;12.776;2022-12-18T08:41:04;16.50;;;10.50;;
7377;SDS011;3730;50.856;12.776;2022-12-18T08:43:30;12.77;;;7.60;;
7377;SDS011;3730;50.856;12.776;2022-12-18T08:46:15;11.27;;;8.65;;
7377;SDS011;3730;50.856;12.776;2022-12-18T08:48:41;11.73;;;8.15;;
7377;SDS011;3730;50.856;12.776;2022-12-18T08:56:19;15.37;;;8.20;;
7377;SDS011;3730;50.856;12.776;2022-12-18T08:58:45;9.13;;;6.20;;
7377;SDS011;3730;50.856;12.776;2022-12-18T09:01:12;8.57;;;6.05;;
7377;SDS011;3730;50.856;12.776;2022-12-18T09:03:38;12.23;;;6.77;;
7377;SDS011;3730;50.856;12.776;2022-12-18T09:06:05;24.17;;;12.00;;
7377;SDS011;3730;50.856;12.776;2022-12-18T09:08:31;26.27;;;13.73;;
7377;SDS011;3730;50.856;12.776;2022-12-18T09:10:57;25.95;;;13.82;;
7377;SDS011;3730;50.856;12.776;2022-12-18T09:13:23;23.70;;;12.87;;
7377;SDS011;3730;50.856;12.776;2022-12-18T09:15:50;16.93;;;10.43;;
7377;SDS011;3730;50.856;12.776;2022-12-18T09:18:17;12.70;;;8.20;;
7377;SDS011;3730;50.856;12.776;2022-12-18T09:20:44;10.70;;;7.30;;
7377;SDS011;3730;50.856;12.776;2022-12-18T09:23:10;15.27;;;8.80;;
7377;SDS011;3730;50.856;12.776;2022-12-18T09:25:36;12.98;;;9.20;;
7377;SDS011;3730;50.856;12.776;2022-12-18T09:28:03;12.13;;;8.00;;
7377;SDS011;3730;50.856;12.776;2022-12-18T09:30:30;13.77;;;7.67;;
7377;SDS011;3730;50.856;12.776;2022-12-18T09:32:58;12.73;;;8.70;;
7377;SDS011;3730;50.856;12.776;2022-12-18T09:35:24;11.20;;;8.30;;
7377;SDS011;3730;50.856;12.776;2022-12-18T09:37:50;11.33;;;7.40;;
7377;SDS011;3730;50.856;12.776;2022-12-18T09:40:18;14.43;;;8.60;;
7377;SDS011;3730;50.856;12.776;2022-12-18T09:42:45;21.67;;;11.80;;
7377;SDS011;3730;50.856;12.776;2022-12-18T09:45:13;41.20;;;22.20;;
7377;SDS011;3730;50.856;12.776;2022-12-18T09:47:40;39.73;;;21.30;;
7377;SDS011;3730;50.856;12.776;2022-12-18T09:50:22;47.03;;;24.17;;
7377;SDS011;3730;50.856;12.776;2022-12-18T09:52:51;32.30;;;20.07;;
7377;SDS011;3730;50.856;12.776;2022-12-18T09:55:37;34.37;;;21.27;;
7377;SDS011;3730;50.856;12.776;2022-12-18T10:00:33;20.93;;;13.57;;
7377;SDS011;3730;50.856;12.776;2022-12-18T10:02:59;20.33;;;13.70;;
7377;SDS011;3730;50.856;12.776;2022-12-18T10:05:30;16.23;;;11.23;;
7377;SDS011;3730;50.856;12.776;2022-12-18T10:16:02;17.23;;;11.47;;
7377;SDS011;3730;50.856;12.776;2022-12-18T10:20:56;12.67;;;8.73;;
7377;SDS011;3730;50.856;12.776;2022-12-18T10:26:08;7.20;;;4.90;;
7377;SDS011;3730;50.856;12.776;2022-12-18T10:28:38;9.53;;;5.27;;
7377;SDS011;3730;50.856;12.776;2022-12-18T10:31:05;8.27;;;5.20;;
7377;SDS011;3730;50.856;12.776;2022-12-18T10:33:32;6.57;;;4.80;;
7377;SDS011;3730;50.856;12.776;2022-12-18T10:35:59;7.33;;;4.60;;
7377;SDS011;3730;50.856;12.776;2022-12-18T10:38:29;7.63;;;5.60;;
7377;SDS011;3730;50.856;12.776;2022-12-18T10:43:39;19.27;;;9.30;;
7377;SDS011;3730;50.856;12.776;2022-12-18T10:51:07;19.10;;;11.40;;
7377;SDS011;3730;50.856;12.776;2022-12-18T10:53:33;14.87;;;9.80;;
7377;SDS011;3730;50.856;12.776;2022-12-18T10:56:00;15.00;;;9.80;;
7377;SDS011;3730;50.856;12.776;2022-12-18T10:58:28;14.63;;;9.50;;
7377;SDS011;3730;50.856;12.776;2022-12-18T11:01:06;15.40;;;10.00;;
7377;SDS011;3730;50.856;12.776;2022-12-18T11:03:37;18.60;;;11.30;;
7377;SDS011;3730;50.856;12.776;2022-12-18T11:08:36;17.43;;;10.70;;
7377;SDS011;3730;50.856;12.776;2022-12-18T11:11:02;15.73;;;9.87;;
7377;SDS011;3730;50.856;12.776;2022-12-18T11:13:29;14.90;;;9.67;;
7377;SDS011;3730;50.856;12.776;2022-12-18T11:15:55;12.50;;;8.87;;
7377;SDS011;3730;50.856;12.776;2022-12-18T11:18:25;11.80;;;8.30;;
7377;SDS011;3730;50.856;12.776;2022-12-18T11:20:53;13.27;;;7.77;;
7377;SDS011;3730;50.856;12.776;2022-12-18T11:23:20;12.87;;;7.80;;
7377;SDS011;3730;50.856;12.776;2022-12-18T11:25:54;12.10;;;8.47;;
7377;SDS011;3730;50.856;12.776;2022-12-18T11:28:26;11.73;;;7.97;;
7377;SDS011;3730;50.856;12.776;2022-12-18T11:31:08;13.63;;;8.23;;
7377;SDS011;3730;50.856;12.776;2022-12-18T11:33:35;13.57;;;8.73;;
7377;SDS011;3730;50.856;12.776;2022-12-18T11:36:02;14.63;;;8.93;;
7377;SDS011;3730;50.856;12.776;2022-12-18T11:38:31;13.07;;;8.60;;
7377;SDS011;3730;50.856;12.776;2022-12-18T11:40:59;11.40;;;8.07;;
7377;SDS011;3730;50.856;12.776;2022-12-18T11:46:00;14.33;;;9.03;;
7377;SDS011;3730;50.856;12.776;2022-12-18T11:48:30;13.10;;;8.33;;
7377;SDS011;3730;50.856;12.776;2022-12-18T11:50:57;12.97;;;7.67;;
7377;SDS011;3730;50.856;12.776;2022-12-18T11:53:24;11.90;;;8.20;;
7377;SDS011;3730;50.856;12.776;2022-12-18T11:58:24;12.53;;;7.80;;
7377;SDS011;3730;50.856;12.776;2022-12-18T12:03:27;10.90;;;7.90;;
7377;SDS011;3730;50.856;12.776;2022-12-18T12:06:06;10.33;;;7.27;;
7377;SDS011;3730;50.856;12.776;2022-12-18T12:16:14;13.27;;;8.67;;
7377;SDS011;3730;50.856;12.776;2022-12-18T12:19:05;13.50;;;8.97;;
7377;SDS011;3730;50.856;12.776;2022-12-18T12:21:40;13.30;;;8.73;;
7377;SDS011;3730;50.856;12.776;2022-12-18T12:29:21;12.80;;;7.97;;
7377;SDS011;3730;50.856;12.776;2022-12-18T12:34:22;12.87;;;8.37;;
7377;SDS011;3730;50.856;12.776;2022-12-18T12:39:38;10.87;;;7.70;;
7377;SDS011;3730;50.856;12.776;2022-12-18T12:42:09;11.77;;;7.30;;
7377;SDS011;3730;50.856;12.776;2022-12-18T12:44:55;11.20;;;7.10;;
7377;SDS011;3730;50.856;12.776;2022-12-18T12:47:26;12.30;;;8.03;;
7377;SDS011;3730;50.856;12.776;2022-12-18T12:49:54;11.67;;;7.67;;
7377;SDS011;3730;50.856;12.776;2022-12-18T12:52:24;15.07;;;9.50;;
7377;SDS011;3730;50.856;12.776;2022-12-18T12:54:53;15.07;;;9.40;;
7377;SDS011;3730;50.856;12.776;2022-12-18T12:57:21;13.97;;;8.63;;
7377;SDS011;3730;50.856;12.776;2022-12-18T13:02:21;14.73;;;8.40;;
7377;SDS011;3730;50.856;12.776;2022-12-18T13:04:53;11.13;;;7.70;;
7377;SDS011;3730;50.856;12.776;2022-12-18T13:07:29;21.70;;;14.93;;
7377;SDS011;3730;50.856;12.776;2022-12-18T13:10:12;35.47;;;19.63;;
7377;SDS011;3730;50.856;12.776;2022-12-18T13:17:55;24.30;;;14.40;;
7377;SDS011;3730;50.856;12.776;2022-12-18T13:20:50;23.63;;;13.37;;
7377;SDS011;3730;50.856;12.776;2022-12-18T13:28:16;13.27;;;8.90;;
7377;SDS011;3730;50.856;12.776;2022-12-18T13:30:44;16.67;;;9.90;;
7377;SDS011;3730;50.856;12.776;2022-12-18T13:35:41;7.67;;;5.87;;
7377;SDS011;3730;50.856;12.776;2022-12-18T13:38:23;9.00;;;6.07;;
7377;SDS011;3730;50.856;12.776;2022-12-18T13:40:59;8.23;;;5.50;;
7377;SDS011;3730;50.856;12.776;2022-12-18T13:43:29;8.20;;;5.80;;
7377;SDS011;3730;50.856;12.776;2022-12-18T13:45:59;9.10;;;5.77;;
7377;SDS011;3730;50.856;12.776;2022-12-18T13:48:26;11.60;;;6.60;;
7377;SDS011;3730;50.856;12.776;2022-12-18T13:53:26;9.57;;;6.33;;
7377;SDS011;3730;50.856;12.776;2022-12-18T13:55:52;8.80;;;6.10;;
7377;SDS011;3730;50.856;12.776;2022-12-18T13:58:18;8.73;;;5.80;;
7377;SDS011;3730;50.856;12.776;2022-12-18T14:00:44;8.80;;;6.03;;
7377;SDS011;3730;50.856;12.776;2022-12-18T14:05:46;9.83;;;5.87;;
7377;SDS011;3730;50.856;12.776;2022-12-18T14:08:17;9.70;;;6.67;;
7377;SDS011;3730;50.856;12.776;2022-12-18T14:10:45;10.90;;;6.47;;
7377;SDS011;3730;50.856;12.776;2022-12-18T14:13:14;11.93;;;6.80;;
7377;SDS011;3730;50.856;12.776;2022-12-18T14:15:41;13.37;;;7.17;;
7377;SDS011;3730;50.856;12.776;2022-12-18T14:20:41;10.30;;;6.67;;
7377;SDS011;3730;50.856;12.776;2022-12-18T14:25:53;11.10;;;6.90;;
7377;SDS011;3730;50.856;12.776;2022-12-18T14:28:19;11.87;;;7.47;;
7377;SDS011;3730;50.856;12.776;2022-12-18T14:30:47;15.67;;;9.93;;
7377;SDS011;3730;50.856;12.776;2022-12-18T14:33:19;16.20;;;11.70;;
7377;SDS011;3730;50.856;12.776;2022-12-18T14:35:59;11.00;;;7.40;;
7377;SDS011;3730;50.856;12.776;2022-12-18T14:38:30;13.50;;;8.50;;
7377;SDS011;3730;50.856;12.776;2022-12-18T14:41:00;14.57;;;9.67;;
7377;SDS011;3730;50.856;12.776;2022-12-18T14:43:27;22.40;;;13.13;;
7377;SDS011;3730;50.856;12.776;2022-12-18T14:45:53;22.97;;;12.90;;
7377;SDS011;3730;50.856;12.776;2022-12-18T14:50:53;12.87;;;7.33;;
7377;SDS011;3730;50.856;12.776;2022-12-18T14:53:21;13.37;;;7.50;;
7377;SDS011;3730;50.856;12.776;2022-12-18T14:55:47;11.00;;;7.03;;
7377;SDS011;3730;50.856;12.776;2022-12-18T14:58:15;13.03;;;7.07;;
7377;SDS011;3730;50.856;12.776;2022-12-18T15:00:41;13.53;;;7.17;;
7377;SDS011;3730;50.856;12.776;2022-12-18T15:03:08;13.20;;;7.67;;
7377;SDS011;3730;50.856;12.776;2022-12-18T15:05:35;11.13;;;6.97;;
7377;SDS011;3730;50.856;12.776;2022-12-18T15:08:01;9.80;;;6.20;;
7377;SDS011;3730;50.856;12.776;2022-12-18T15:10:45;8.63;;;5.93;;
7377;SDS011;3730;50.856;12.776;2022-12-18T15:13:20;8.60;;;5.53;;
7377;SDS011;3730;50.856;12.776;2022-12-18T15:15:48;9.27;;;6.00;;
7377;SDS011;3730;50.856;12.776;2022-12-18T15:18:15;12.90;;;6.73;;
7377;SDS011;3730;50.856;12.776;2022-12-18T15:20:43;15.67;;;9.60;;
7377;SDS011;3730;50.856;12.776;2022-12-18T15:23:28;23.63;;;12.27;;
7377;SDS011;3730;50.856;12.776;2022-12-18T15:25:59;21.57;;;11.87;;
7377;SDS011;3730;50.856;12.776;2022-12-18T15:28:31;18.27;;;10.97;;
7377;SDS011;3730;50.856;12.776;2022-12-18T15:36:20;11.80;;;7.40;;
7377;SDS011;3730;50.856;12.776;2022-12-18T15:38:46;11.90;;;6.97;;
7377;SDS011;3730;50.856;12.776;2022-12-18T15:41:13;11.13;;;6.60;;
7377;SDS011;3730;50.856;12.776;2022-12-18T15:43:41;11.73;;;6.03;;
7377;SDS011;3730;50.856;12.776;2022-12-18T15:46:13;10.23;;;6.27;;
7377;SDS011;3730;50.856;12.776;2022-12-18T15:48:44;10.23;;;6.13;;
7377;SDS011;3730;50.856;12.776;2022-12-18T15:51:20;10.53;;;6.10;;
7377;SDS011;3730;50.856;12.776;2022-12-18T15:53:47;9.17;;;5.70;;
7377;SDS011;3730;50.856;12.776;2022-12-18T15:56:15;11.27;;;5.73;;
7377;SDS011;3730;50.856;12.776;2022-12-18T15:59:01;9.33;;;5.70;;
7377;SDS011;3730;50.856;12.776;2022-12-18T16:01:28;8.20;;;5.37;;
7377;SDS011;3730;50.856;12.776;2022-12-18T16:03:54;9.93;;;5.90;;
7377;SDS011;3730;50.856;12.776;2022-12-18T16:06:21;9.97;;;5.80;;
7377;SDS011;3730;50.856;12.776;2022-12-18T16:08:47;8.97;;;5.53;;
7377;SDS011;3730;50.856;12.776;2022-12-18T16:11:26;8.73;;;5.97;;
7377;SDS011;3730;50.856;12.776;2022-12-18T16:14:18;10.37;;;6.20;;
7377;SDS011;3730;50.856;12.776;2022-12-18T16:16:45;9.60;;;6.30;;
7377;SDS011;3730;50.856;12.776;2022-12-18T16:19:11;9.43;;;6.30;;
7377;SDS011;3730;50.856;12.776;2022-12-18T16:21:37;9.07;;;5.90;;
7377;SDS011;3730;50.856;12.776;2022-12-18T16:24:03;9.60;;;5.83;;
7377;SDS011;3730;50.856;12.776;2022-12-18T16:26:29;9.20;;;5.80;;
7377;SDS011;3730;50.856;12.776;2022-12-18T16:28:55;9.43;;;6.10;;
7377;SDS011;3730;50.856;12.776;2022-12-18T16:31:21;10.83;;;6.17;;
7377;SDS011;3730;50.856;12.776;2022-12-18T16:33:47;9.90;;;6.50;;
7377;SDS011;3730;50.856;12.776;2022-12-18T16:36:13;8.77;;;5.90;;
7377;SDS011;3730;50.856;12.776;2022-12-18T16:38:39;8.30;;;5.43;;
7377;SDS011;3730;50.856;12.776;2022-12-18T16:41:15;10.10;;;6.00;;
7377;SDS011;3730;50.856;12.776;2022-12-18T16:44:00;7.93;;;5.37;;
7377;SDS011;3730;50.856;12.776;2022-12-18T16:46:26;10.27;;;5.93;;
7377;SDS011;3730;50.856;12.776;2022-12-18T16:48:52;9.73;;;6.30;;